createdAt,value
2023-04-18T00:00:16.244Z,389.716350
2023-04-18T00:05:17.196Z,375.846182
2023-04-18T00:10:16.845Z,362.040351
2023-04-18T00:15:17.105Z,350.456189
2023-04-18T00:20:16.788Z,335.501840
2023-04-18T00:25:16.873Z,230.435697
2023-04-18T00:30:16.063Z,107.445872
2023-04-18T00:35:16.171Z,105.670681
2023-04-18T00:40:16.639Z,267.780593
2023-04-18T00:45:16.611Z,262.367819
2023-04-18T00:50:16.364Z,243.144094
2023-04-18T00:55:16.973Z,202.493197
2023-04-18T01:00:16.576Z,160.394592
2023-04-18T01:05:17.444Z,66.505278
2023-04-18T01:10:17.307Z,51.209104
2023-04-18T01:15:16.393Z,38.606000
2023-04-18T01:20:16.094Z,34.610863
2023-04-18T01:25:17.439Z,33.913338
2023-04-18T01:30:17.116Z,32.547871
2023-04-18T01:35:16.697Z,32.941760
2023-04-18T01:40:16.177Z,30.907321
2023-04-18T01:45:16.282Z,24.550869
2023-04-18T01:50:17.094Z,19.866989
2023-04-18T01:55:16.056Z,13.967035
2023-04-18T02:00:16.934Z,15.549620
2023-04-18T02:05:15.944Z,28.510966
2023-04-18T02:10:16.050Z,31.519906
2023-04-18T02:15:15.943Z,29.265609
2023-04-18T02:20:15.903Z,16.599442
2023-04-18T02:25:16.220Z,8.983833
2023-04-18T02:30:16.505Z,6.671681
2023-04-18T02:35:16.434Z,4.236491
2023-04-18T02:40:16.575Z,1.354512
2023-04-18T02:45:16.447Z,0.401905
2023-04-18T02:50:16.765Z,0.070117
2023-04-18T02:55:16.165Z,0.051018
2023-04-18T03:00:15.857Z,0.000000
2023-04-18T03:05:15.939Z,0.000000
2023-04-18T03:10:16.735Z,0.000000
2023-04-18T03:15:15.940Z,0.000000
2023-04-18T03:20:16.135Z,0.000000
2023-04-18T03:25:16.436Z,0.000000
2023-04-18T03:30:16.542Z,0.000000
2023-04-18T03:35:16.030Z,0.000000
2023-04-18T03:40:16.004Z,0.000000
2023-04-18T03:45:15.922Z,0.000000
2023-04-18T03:50:16.240Z,0.000000
2023-04-18T03:55:16.075Z,0.000000
2023-04-18T04:00:16.601Z,0.000000
2023-04-18T04:05:15.971Z,0.000000
2023-04-18T04:10:16.246Z,0.000000
2023-04-18T04:15:16.055Z,0.000000
2023-04-18T04:20:17.370Z,0.000000
2023-04-18T04:25:16.182Z,0.000000
2023-04-18T04:30:16.604Z,0.000000
2023-04-18T04:35:15.951Z,0.000000
2023-04-18T04:40:16.666Z,0.000000
2023-04-18T04:45:15.798Z,0.000000
2023-04-18T04:50:16.034Z,0.000000
2023-04-18T04:55:16.465Z,0.000000
2023-04-18T05:00:16.749Z,0.000000
2023-04-18T05:05:16.539Z,0.000000
2023-04-18T05:10:16.235Z,0.000000
2023-04-18T05:15:16.052Z,0.000000
2023-04-18T05:20:16.153Z,0.000000
2023-04-18T05:25:15.934Z,0.000000
2023-04-18T05:30:16.169Z,0.000000
2023-04-18T05:35:15.960Z,0.000000
2023-04-18T05:40:16.394Z,0.000000
2023-04-18T05:45:16.950Z,0.000000
2023-04-18T05:50:16.148Z,0.000000
2023-04-18T05:55:17.101Z,0.000000
2023-04-18T06:00:17.020Z,0.002381
2023-04-18T06:05:16.161Z,0.000000
2023-04-18T06:10:16.265Z,0.000000
2023-04-18T06:15:16.486Z,0.000000
2023-04-18T06:20:16.636Z,0.000000
2023-04-18T06:25:15.869Z,0.000000
2023-04-18T06:30:16.505Z,0.000000
2023-04-18T06:35:16.073Z,0.000000
2023-04-18T06:40:17.312Z,0.000000
2023-04-18T06:45:15.787Z,0.000000
2023-04-18T06:50:15.946Z,0.000000
2023-04-18T06:55:16.099Z,0.000000
2023-04-18T07:00:17.043Z,0.000000
2023-04-18T07:05:15.718Z,0.000000
2023-04-18T07:10:16.636Z,0.000000
2023-04-18T07:15:16.592Z,0.000000
2023-04-18T07:20:16.975Z,0.000000
2023-04-18T07:25:15.901Z,0.000000
2023-04-18T07:30:16.306Z,0.000000
2023-04-18T07:35:16.633Z,0.000000
2023-04-18T07:40:16.092Z,0.000000
2023-04-18T07:45:16.010Z,0.000000
2023-04-18T07:50:16.539Z,0.000000
2023-04-18T07:55:16.658Z,0.000000
2023-04-18T08:00:16.886Z,0.000000
2023-04-18T08:05:15.967Z,0.000000
2023-04-18T08:10:16.123Z,0.000000
2023-04-18T08:15:16.782Z,0.000000
2023-04-18T08:20:16.248Z,0.000000
2023-04-18T08:25:16.180Z,0.000000
2023-04-18T08:30:16.362Z,0.000000
2023-04-18T08:35:15.949Z,0.000000
2023-04-18T08:40:16.022Z,0.000000
2023-04-18T08:45:16.525Z,0.000000
2023-04-18T08:50:16.085Z,0.000000
2023-04-18T08:55:21.182Z,0.000000
2023-04-18T09:00:17.288Z,0.000000
2023-04-18T09:05:16.268Z,0.000000
2023-04-18T09:10:16.844Z,0.000000
2023-04-18T09:15:17.042Z,0.000000
2023-04-18T09:20:16.756Z,0.000000
2023-04-18T09:25:15.777Z,0.000000
2023-04-18T09:30:16.116Z,0.000000
2023-04-18T09:35:16.098Z,0.000000
2023-04-18T09:40:16.572Z,0.000000
2023-04-18T09:45:16.580Z,0.000000
2023-04-18T09:50:16.397Z,0.000000
2023-04-18T09:55:17.559Z,0.000000
2023-04-18T10:00:17.000Z,0.000000
2023-04-18T10:05:17.620Z,0.000000
2023-04-18T10:10:16.444Z,0.000000
2023-04-18T10:15:15.992Z,0.000000
2023-04-18T10:20:16.152Z,0.000000
2023-04-18T10:25:16.543Z,0.000000
2023-04-18T10:30:16.975Z,0.002387
2023-04-18T10:35:16.239Z,0.000000
2023-04-18T10:40:15.889Z,0.000000
2023-04-18T10:45:16.114Z,0.000000
2023-04-18T10:50:17.240Z,0.000000
2023-04-18T10:55:16.483Z,0.000000
2023-04-18T11:00:16.776Z,0.000000
2023-04-18T11:05:16.429Z,0.000000
2023-04-18T11:10:17.269Z,0.000000
2023-04-18T11:15:16.749Z,0.000000
2023-04-18T11:20:16.361Z,0.000000
2023-04-18T11:25:16.411Z,0.000000
2023-04-18T11:30:15.734Z,0.000000
2023-04-18T11:35:16.554Z,0.000000
2023-04-18T11:40:16.349Z,0.000000
2023-04-18T11:45:15.994Z,0.000000
2023-04-18T11:50:16.322Z,0.000000
2023-04-18T11:55:15.854Z,0.000000
2023-04-18T12:00:16.015Z,0.000000
2023-04-18T12:05:16.106Z,0.000000
2023-04-18T12:10:16.260Z,0.000000
2023-04-18T12:15:16.428Z,0.000000
2023-04-18T12:20:16.834Z,0.000000
2023-04-18T12:25:16.420Z,0.000000
2023-04-18T12:30:16.396Z,0.000000
2023-04-18T12:35:17.608Z,0.000000
2023-04-18T12:40:15.957Z,0.000000
2023-04-18T12:45:16.056Z,0.000000
2023-04-18T12:50:15.876Z,0.000000
2023-04-18T12:55:16.217Z,0.000000
2023-04-18T13:00:16.027Z,0.000000
2023-04-18T13:05:16.499Z,0.000000
2023-04-18T13:10:15.905Z,0.000000
2023-04-18T13:15:16.256Z,0.014394
2023-04-18T13:20:15.911Z,0.114108
2023-04-18T13:25:15.915Z,0.797207
2023-04-18T13:30:16.412Z,1.676543
2023-04-18T13:35:16.444Z,4.274552
2023-04-18T13:40:16.289Z,5.301393
2023-04-18T13:45:15.928Z,6.462135
2023-04-18T13:50:17.253Z,7.014425
2023-04-18T13:55:16.687Z,9.319825
2023-04-18T14:00:17.080Z,17.059249
2023-04-18T14:05:17.843Z,22.924444
2023-04-18T14:10:16.196Z,31.069752
2023-04-18T14:15:16.022Z,27.511960
2023-04-18T14:20:16.354Z,25.540208
2023-04-18T14:25:15.864Z,30.556402
2023-04-18T14:30:15.976Z,58.708791
2023-04-18T14:35:16.025Z,54.247821
2023-04-18T14:40:16.672Z,49.019461
2023-04-18T14:45:16.124Z,37.365773
2023-04-18T14:50:15.813Z,44.016248
2023-04-18T14:55:16.233Z,60.168872
2023-04-18T15:00:16.646Z,65.434838
2023-04-18T15:05:16.037Z,42.886810
2023-04-18T15:10:16.238Z,49.417059
2023-04-18T15:15:16.729Z,55.854577
2023-04-18T15:20:15.909Z,30.822707
2023-04-18T15:25:16.331Z,55.575761
2023-04-18T15:30:16.558Z,73.052585
2023-04-18T15:35:16.666Z,61.630677
2023-04-18T15:40:16.449Z,72.158522
2023-04-18T15:45:16.656Z,81.018150
2023-04-18T15:50:16.225Z,84.599239
2023-04-18T15:55:16.879Z,83.609902
2023-04-18T16:00:16.379Z,84.195252
2023-04-18T16:05:17.267Z,123.194654
2023-04-18T16:10:16.010Z,178.957875
2023-04-18T16:15:15.958Z,178.994172
2023-04-18T16:20:15.944Z,145.483969
2023-04-18T16:25:16.513Z,156.127201
2023-04-18T16:30:15.878Z,139.572748
2023-04-18T16:35:16.956Z,139.353449
2023-04-18T16:40:16.023Z,162.072566
2023-04-18T16:45:16.050Z,204.617510
2023-04-18T16:50:16.616Z,225.203543
2023-04-18T16:55:15.831Z,157.945469
2023-04-18T17:00:16.651Z,133.582050
2023-04-18T17:05:16.699Z,172.622346
2023-04-18T17:10:16.292Z,200.033045
2023-04-18T17:15:16.223Z,165.437202
2023-04-18T17:20:16.246Z,144.869508
2023-04-18T17:25:16.864Z,249.107757
2023-04-18T17:30:16.475Z,271.450219
2023-04-18T17:35:15.880Z,256.624900
2023-04-18T17:40:15.774Z,321.505751
2023-04-18T17:45:16.320Z,568.892076
2023-04-18T17:50:16.068Z,447.940320
2023-04-18T17:55:16.511Z,400.890003
2023-04-18T18:00:16.196Z,557.227184
2023-04-18T18:05:15.696Z,633.517417
2023-04-18T18:10:16.223Z,642.885526
2023-04-18T18:15:15.876Z,541.978827
2023-04-18T18:20:15.953Z,524.176694
2023-04-18T18:25:16.705Z,606.931544
2023-04-18T18:30:16.349Z,520.853883
2023-04-18T18:35:16.890Z,278.713098
2023-04-18T18:40:16.182Z,357.861800
2023-04-18T18:45:16.319Z,326.764224
2023-04-18T18:50:17.722Z,277.169567
2023-04-18T18:55:16.118Z,219.996873
2023-04-18T19:00:16.132Z,230.509779
2023-04-18T19:05:16.116Z,236.034782
2023-04-18T19:10:16.685Z,435.475613
2023-04-18T19:15:15.891Z,724.545329
2023-04-18T19:20:15.764Z,730.397054
2023-04-18T19:25:16.807Z,809.300104
2023-04-18T19:30:16.015Z,645.346556
2023-04-18T19:35:15.820Z,597.503959
2023-04-18T19:40:16.148Z,616.296190
2023-04-18T19:45:16.811Z,711.387627
2023-04-18T19:50:16.618Z,415.865527
2023-04-18T19:55:17.800Z,622.159169
2023-04-18T20:00:15.916Z,650.642887
2023-04-18T20:05:16.848Z,756.876330
2023-04-18T20:10:17.246Z,568.154635
2023-04-18T20:15:16.527Z,485.809886
2023-04-18T20:20:16.388Z,477.862428
2023-04-18T20:25:16.451Z,356.078498
2023-04-18T20:30:15.815Z,541.277231
2023-04-18T20:35:17.045Z,549.668426
2023-04-18T20:40:15.876Z,426.789474
2023-04-18T20:45:16.814Z,844.069426
2023-04-18T20:50:16.505Z,619.140761
2023-04-18T20:55:15.985Z,355.679392
2023-04-18T21:00:15.740Z,589.346015
2023-04-18T21:05:16.200Z,479.373181
2023-04-18T21:10:16.029Z,595.096130
2023-04-18T21:15:16.591Z,431.061975
2023-04-18T21:20:15.976Z,434.845614
2023-04-18T21:25:16.428Z,546.188089
2023-04-18T21:30:15.900Z,439.056376
2023-04-18T21:35:18.620Z,433.687181
2023-04-18T21:40:15.903Z,404.771556
2023-04-18T21:45:15.920Z,483.739955
2023-04-18T21:50:17.070Z,230.924017
2023-04-18T21:55:17.030Z,168.421952
2023-04-18T22:00:15.931Z,251.265461
2023-04-18T22:05:16.339Z,318.079142
2023-04-18T22:10:17.040Z,422.427515
2023-04-18T22:15:15.774Z,391.312782
2023-04-18T22:20:16.567Z,459.118535
2023-04-18T22:25:15.744Z,321.466912
2023-04-18T22:30:15.863Z,650.921685
2023-04-18T22:35:16.053Z,734.462122
2023-04-18T22:40:16.232Z,645.233705
2023-04-18T22:45:16.139Z,611.123997
2023-04-18T22:50:17.112Z,616.346486
2023-04-18T22:55:17.023Z,558.732204
2023-04-18T23:00:16.764Z,533.371667
2023-04-18T23:05:17.258Z,357.015045
2023-04-18T23:10:16.328Z,385.825094
2023-04-18T23:15:16.022Z,501.119044
2023-04-18T23:20:16.076Z,422.516763
2023-04-18T23:25:16.532Z,400.784119
2023-04-18T23:30:15.912Z,283.705456
2023-04-18T23:35:16.152Z,346.198397
2023-04-18T23:40:16.240Z,461.179379
2023-04-18T23:45:16.076Z,446.099129
2023-04-18T23:50:16.394Z,340.868362
2023-04-18T23:55:15.734Z,399.764799
